Погода Тепленена 2 недели

Влёра, Албания

21 июня-03 июля
  • 21июня
    Сегодня
    +26°
    +42°
    Практически безоблачно
    ВремяПогодаТемператураВлажностьДавлениеВетер, м/сВероятность осадков
    02:00Ясно и безоблачно+31°C75 %753 мм1.0 м/с2 %
    05:00Ясно и безоблачно+28°C68 %753 мм0.8 м/с2 %
    08:00Ясно и безоблачно+27°C60 %753 мм1.1 м/с2 %
    11:00Ясно и безоблачно+34°C40 %753 мм1.2 м/с2 %
    14:00Практически безоблачно+40°C33 %752 мм2.3 м/с2 %
    17:00Практически безоблачно+40°C42 %751 мм2.3 м/с2 %
    20:00Ясно и безоблачно+35°C59 %752 мм1.5 м/с2 %
    23:00Ясно и безоблачно+33°C56 %751 мм0.5 м/с2 %
  • 22июня
    Суббота
    +26°
    +42°
    Небольшая облачность
    ВремяПогодаТемператураВлажностьДавлениеВетер, м/сВероятность осадков
    02:00Ясно и безоблачно+31°C58 %750 мм0.7 м/с2 %
    05:00Ясно и безоблачно+27°C61 %750 мм0.9 м/с2 %
    08:00Ясно и безоблачно+28°C55 %750 мм0.3 м/с2 %
    11:00Ясно и безоблачно+36°C38 %749 мм0.8 м/с2 %
    14:00Небольшая облачность+41°C32 %749 мм1.9 м/с8 %
    17:00Ясно и безоблачно+40°C45 %748 мм2.5 м/с3 %
    20:00Ясно и безоблачно+34°C70 %748 мм1.2 м/с2 %
    23:00Ясно и безоблачно+31°C73 %748 мм0.7 м/с2 %
  • 23июня
    Воскресенье
    +25°
    +40°
    Практически безоблачно
    ВремяПогодаТемператураВлажностьДавлениеВетер, м/сВероятность осадков
    02:00Ясно и безоблачно+31°C58 %748 мм0.4 м/с2 %
    05:00Ясно и безоблачно+27°C64 %748 мм0.6 м/с2 %
    08:00Ясно и безоблачно+27°C58 %748 мм0.1 м/с2 %
    11:00Ясно и безоблачно+33°C45 %748 мм1.1 м/с2 %
    14:00Практически безоблачно+40°C39 %747 мм2.0 м/с17 %
    17:00Ясно и безоблачно+38°C49 %747 мм2.0 м/с9 %
    20:00Ясно и безоблачно+33°C72 %748 мм1.1 м/с2 %
    23:00Ясно и безоблачно+30°C69 %749 мм0.7 м/с2 %
  • 24июня
    Понедельник
    +23°
    +40°
    Практически безоблачно
    ВремяПогодаТемператураВлажностьДавлениеВетер, м/сВероятность осадков
    02:00Ясно и безоблачно+28°C71 %748 мм0.4 м/с2 %
    05:00Ясно и безоблачно+25°C72 %747 мм0.7 м/с2 %
    08:00Ясно и безоблачно+25°C65 %748 мм0.2 м/с2 %
    11:00Ясно и безоблачно+34°C43 %748 мм0.1 м/с2 %
    14:00Практически безоблачно+39°C39 %748 мм1.5 м/с12 %
    17:00Ясно и безоблачно+37°C46 %749 мм1.7 м/с15 %
    20:00Ясно и безоблачно+33°C78 %749 мм1.0 м/с2 %
    23:00Ясно и безоблачно+29°C81 %750 мм0.7 м/с4 %
Мы используем cookies
Соглашаюсь